createdAt,value
2022-10-19T00:01:23.155Z,102795.44
2022-10-19T00:03:54.522Z,102798.00
2022-10-19T00:06:26.489Z,102803.19
2022-10-19T00:08:59.141Z,102804.91
2022-10-19T00:11:28.097Z,102794.41
2022-10-19T00:13:57.819Z,102792.63
2022-10-19T00:16:29.885Z,102784.75
2022-10-19T00:18:59.128Z,102783.81
2022-10-19T00:21:27.676Z,102782.03
2022-10-19T00:23:55.344Z,102774.09
2022-10-19T00:26:22.937Z,102777.56
2022-10-19T00:28:54.020Z,102781.03
2022-10-19T00:31:21.442Z,102773.09
2022-10-19T00:33:48.997Z,102773.97
2022-10-19T00:36:24.990Z,102777.44
2022-10-19T00:38:53.568Z,102780.88
2022-10-19T00:41:24.448Z,102786.09
2022-10-19T00:44:06.866Z,102786.06
2022-10-19T00:46:39.667Z,102784.22
2022-10-19T00:49:19.989Z,102787.69
2022-10-19T00:51:53.704Z,102791.19
2022-10-19T00:54:22.526Z,102786.78
2022-10-19T00:56:53.364Z,102784.16
2022-10-19T00:59:25.102Z,102788.50
2022-10-19T01:01:53.297Z,102785.78
2022-10-19T01:04:24.545Z,102787.47
2022-10-19T01:06:54.126Z,102786.59
2022-10-19T01:09:25.121Z,102786.59
2022-10-19T01:12:23.414Z,102783.16
2022-10-19T01:15:20.412Z,102790.97
2022-10-19T01:17:58.255Z,102784.81
2022-10-19T01:20:47.238Z,102778.72
2022-10-19T01:23:34.687Z,102781.31
2022-10-19T01:26:44.787Z,102777.81
2022-10-19T01:29:49.907Z,102768.16
2022-10-19T01:32:34.997Z,102764.63
2022-10-19T01:35:28.608Z,102764.63
2022-10-19T01:38:19.494Z,102758.44
2022-10-19T01:41:11.256Z,102765.34
2022-10-19T01:44:19.105Z,102761.78
2022-10-19T01:47:06.085Z,102758.25
2022-10-19T01:49:47.032Z,102756.47
2022-10-19T01:52:20.728Z,102756.44
2022-10-19T01:54:53.733Z,102753.81
2022-10-19T01:57:32.479Z,102745.06
2022-10-19T02:00:07.210Z,102749.44
2022-10-19T02:02:46.634Z,102756.38
2022-10-19T02:05:18.847Z,102757.19
2022-10-19T02:07:55.879Z,102749.34
2022-10-19T02:10:25.631Z,102746.66
2022-10-19T02:12:56.385Z,102746.66
2022-10-19T02:15:29.042Z,102749.28
2022-10-19T02:18:00.403Z,102743.97
2022-10-19T02:20:29.152Z,102745.69
2022-10-19T02:22:56.795Z,102743.03
2022-10-19T02:25:25.379Z,102742.13
2022-10-19T02:27:53.215Z,102743.81
2022-10-19T02:30:22.245Z,102736.84
2022-10-19T02:32:51.030Z,102738.59
2022-10-19T02:35:18.761Z,102734.16
2022-10-19T02:37:46.441Z,102728.94
2022-10-19T02:40:14.491Z,102724.53
2022-10-19T02:42:56.736Z,102721.88
2022-10-19T02:45:30.875Z,102713.09
2022-10-19T02:48:09.701Z,102711.31
2022-10-19T02:50:38.073Z,102711.25
2022-10-19T02:53:05.538Z,102712.09
2022-10-19T02:55:33.066Z,102705.91
2022-10-19T02:58:00.449Z,102711.06
2022-10-19T03:00:27.803Z,102705.78
2022-10-19T03:02:55.188Z,102705.72
2022-10-19T03:05:22.516Z,102708.31
2022-10-19T03:07:50.028Z,102713.50
2022-10-19T03:10:17.485Z,102708.28
2022-10-19T03:12:44.812Z,102710.03
2022-10-19T03:15:17.338Z,102704.75
2022-10-19T03:17:45.148Z,102714.31
2022-10-19T03:20:12.526Z,102712.53
2022-10-19T03:22:39.952Z,102713.44
2022-10-19T03:25:54.996Z,102710.78
2022-10-19T03:28:33.238Z,102710.69
2022-10-19T03:31:01.194Z,102711.56
2022-10-19T03:33:29.049Z,102700.25
2022-10-19T03:36:19.838Z,102705.47
2022-10-19T03:38:53.478Z,102703.72
2022-10-19T03:41:24.368Z,102696.72
2022-10-19T03:43:51.903Z,102701.13
2022-10-19T03:46:20.434Z,102701.94
2022-10-19T03:48:48.331Z,102702.84
2022-10-19T03:51:21.967Z,102701.13
2022-10-19T03:53:54.971Z,102701.94
2022-10-19T03:56:25.127Z,102700.19
2022-10-19T03:58:55.158Z,102708.88
2022-10-19T04:01:27.095Z,102696.69
2022-10-19T04:03:58.605Z,102693.19
2022-10-19T04:06:30.859Z,102699.25
2022-10-19T04:08:59.342Z,102700.13
2022-10-19T04:11:30.144Z,102704.47
2022-10-19T04:13:59.297Z,102688.75
2022-10-19T04:16:30.545Z,102697.41
2022-10-19T04:18:58.651Z,102701.78
2022-10-19T04:21:30.819Z,102704.34
2022-10-19T04:24:09.004Z,102706.91
2022-10-19T04:26:46.014Z,102699.94
2022-10-19T04:29:14.792Z,102696.38
2022-10-19T04:31:42.404Z,102701.63
2022-10-19T04:34:09.761Z,102714.63
2022-10-19T04:36:37.969Z,102711.97
2022-10-19T04:39:07.009Z,102716.28
2022-10-19T04:41:35.177Z,102717.16
2022-10-19T04:44:06.570Z,102711.94
2022-10-19T04:46:34.579Z,102711.00
2022-10-19T04:49:04.132Z,102705.78
2022-10-19T04:51:31.562Z,102707.53
2022-10-19T04:53:59.833Z,102711.84
2022-10-19T04:56:28.128Z,102710.97
2022-10-19T04:58:57.556Z,102712.66
2022-10-19T05:01:27.721Z,102705.69
2022-10-19T05:04:00.988Z,102699.53
2022-10-19T05:06:30.599Z,102702.97
2022-10-19T05:08:58.709Z,102703.78
2022-10-19T05:11:26.712Z,102704.59
2022-10-19T05:13:54.349Z,102706.31
2022-10-19T05:16:23.921Z,102701.91
2022-10-19T05:18:59.701Z,102695.78
2022-10-19T05:21:29.248Z,102686.97
2022-10-19T05:23:57.916Z,102691.25
2022-10-19T05:26:27.803Z,102695.50
2022-10-19T05:29:01.373Z,102693.75
2022-10-19T05:31:32.616Z,102698.91
2022-10-19T05:34:01.125Z,102690.97
2022-10-19T05:36:34.383Z,102688.31
2022-10-19T05:39:13.201Z,102690.88
2022-10-19T05:41:44.510Z,102695.22
2022-10-19T05:44:20.941Z,102693.47
2022-10-19T05:46:50.881Z,102695.22
2022-10-19T05:49:21.541Z,102694.31
2022-10-19T05:51:50.083Z,102681.25
2022-10-19T05:54:18.300Z,102688.22
2022-10-19T05:56:46.177Z,102678.66
2022-10-19T05:59:18.200Z,102686.47
2022-10-19T06:01:46.925Z,102685.59
2022-10-19T06:04:15.016Z,102682.13
2022-10-19T06:06:43.099Z,102689.09
2022-10-19T06:09:10.975Z,102678.66
2022-10-19T06:11:42.149Z,102682.13
2022-10-19T06:14:15.112Z,102672.56
2022-10-19T06:16:42.872Z,102670.81
2022-10-19T06:19:10.202Z,102680.38
2022-10-19T06:21:39.614Z,102676.03
2022-10-19T06:24:11.817Z,102683.00
2022-10-19T06:26:39.543Z,102688.19
2022-10-19T06:29:07.604Z,102688.22
2022-10-19T06:31:36.504Z,102683.81
2022-10-19T06:34:04.986Z,102692.56
2022-10-19T06:36:32.993Z,102678.69
2022-10-19T06:39:01.946Z,102683.97
2022-10-19T06:41:31.291Z,102682.25
2022-10-19T06:44:12.701Z,102683.19
2022-10-19T06:46:40.129Z,102686.72
2022-10-19T06:49:07.477Z,102683.28
2022-10-19T06:51:34.822Z,102679.94
2022-10-19T06:54:03.037Z,102679.19
2022-10-19T06:56:30.416Z,102673.19
2022-10-19T06:58:58.273Z,102664.63
2022-10-19T07:01:25.922Z,102675.16
2022-10-19T07:03:54.026Z,102677.06
2022-10-19T07:06:23.016Z,102681.56
2022-10-19T07:08:50.519Z,102678.25
2022-10-19T07:11:20.849Z,102684.56
2022-10-19T07:13:48.264Z,102686.50
2022-10-19T07:16:21.159Z,102688.41
2022-10-19T07:18:52.123Z,102682.47
2022-10-19T07:21:22.941Z,102688.72
2022-10-19T07:23:50.631Z,102690.63
2022-10-19T07:26:28.278Z,102683.00
2022-10-19T07:28:57.373Z,102694.47
2022-10-19T07:31:28.938Z,102690.28
2022-10-19T07:34:00.089Z,102693.03
2022-10-19T07:36:30.636Z,102683.59
2022-10-19T07:38:58.143Z,102685.47
2022-10-19T07:41:26.498Z,102680.44
2022-10-19T07:43:54.439Z,102677.97
2022-10-19T07:46:25.646Z,102677.28
2022-10-19T07:48:53.778Z,102671.34
2022-10-19T07:51:22.616Z,102671.50
2022-10-19T07:53:50.099Z,102670.75
2022-10-19T07:56:24.236Z,102665.69
2022-10-19T07:58:55.164Z,102669.31
2022-10-19T08:01:40.876Z,102678.19
2022-10-19T08:06:55.693Z,102685.44
2022-10-19T08:09:50.952Z,102689.94
2022-10-19T08:12:14.798Z,102681.31
2022-10-19T08:14:42.915Z,102677.91
2022-10-19T08:17:16.725Z,102675.38
2022-10-19T08:19:46.901Z,102668.47
2022-10-19T08:22:15.161Z,102664.19
2022-10-19T08:24:42.514Z,102665.13
2022-10-19T08:27:09.885Z,102656.44
2022-10-19T08:29:37.272Z,102663.53
2022-10-19T08:32:04.957Z,102659.22
2022-10-19T08:34:33.229Z,102659.25
2022-10-19T08:37:10.180Z,102653.22
2022-10-19T08:39:47.593Z,102648.88
2022-10-19T08:42:25.391Z,102648.94
2022-10-19T08:45:28.502Z,102656.00
2022-10-19T08:48:37.986Z,102650.75
2022-10-19T08:51:09.197Z,102650.84
2022-10-19T08:53:45.436Z,102651.75
2022-10-19T08:56:51.157Z,102648.22
2022-10-19T08:59:42.037Z,102635.97
2022-10-19T09:02:48.071Z,102621.06
2022-10-19T09:05:38.005Z,102630.69
2022-10-19T09:08:05.510Z,102621.03
2022-10-19T09:10:40.124Z,102613.09
2022-10-19T09:13:29.230Z,102621.00
2022-10-19T09:16:05.211Z,102620.97
2022-10-19T09:18:35.362Z,102623.59
2022-10-19T09:21:33.378Z,102621.78
2022-10-19T09:24:36.754Z,102618.22
2022-10-19T09:27:05.980Z,102621.72
2022-10-19T09:29:47.643Z,102618.16
2022-10-19T09:32:24.298Z,102613.75
2022-10-19T09:34:56.615Z,102616.31
2022-10-19T09:37:26.619Z,102610.09
2022-10-19T09:39:56.054Z,102610.00
2022-10-19T09:42:33.620Z,102603.78
2022-10-19T09:45:29.485Z,102602.00
2022-10-19T09:48:04.579Z,102597.56
2022-10-19T09:50:44.696Z,102599.28
2022-10-19T09:53:21.287Z,102592.16
2022-10-19T09:56:06.646Z,102595.63
2022-10-19T09:58:35.714Z,102601.75
2022-10-19T10:01:03.547Z,102595.50
2022-10-19T10:03:40.433Z,102606.88
2022-10-19T10:06:15.365Z,102601.53
2022-10-19T10:08:58.962Z,102604.97
2022-10-19T10:11:41.021Z,102607.63
2022-10-19T10:14:28.624Z,102597.91
2022-10-19T10:17:02.812Z,102590.84
2022-10-19T10:19:33.680Z,102587.34
2022-10-19T10:22:03.943Z,102589.13
2022-10-19T10:24:33.915Z,102579.44
2022-10-19T10:27:05.770Z,102575.06
2022-10-19T10:29:35.959Z,102575.97
2022-10-19T10:32:16.432Z,102568.00
2022-10-19T10:34:58.382Z,102576.78
2022-10-19T10:37:41.660Z,102571.41
2022-10-19T10:40:31.155Z,102563.34
2022-10-19T10:43:16.613Z,102553.59
2022-10-19T10:45:52.944Z,102547.31
2022-10-19T10:48:37.130Z,102549.91
2022-10-19T10:51:20.676Z,102544.59
2022-10-19T10:53:48.516Z,102546.22
2022-10-19T10:56:28.088Z,102553.19
2022-10-19T10:59:10.063Z,102544.25
2022-10-19T11:01:49.204Z,102552.00
2022-10-19T11:04:25.263Z,102541.28
2022-10-19T11:07:04.936Z,102530.66
2022-10-19T11:09:43.497Z,102528.88
2022-10-19T11:12:19.112Z,102526.16
2022-10-19T11:15:02.311Z,102523.47
2022-10-19T11:17:37.507Z,102514.59
2022-10-19T11:20:13.802Z,102511.88
2022-10-19T11:22:56.043Z,102517.97
2022-10-19T11:25:49.258Z,102509.16
2022-10-19T11:29:24.562Z,102498.63
2022-10-19T11:31:55.910Z,102494.31
2022-10-19T11:34:49.781Z,102495.16
2022-10-19T11:38:19.526Z,102488.88
2022-10-19T11:41:22.843Z,102485.13
2022-10-19T11:44:20.971Z,102484.94
2022-10-19T11:47:00.514Z,102476.00
2022-10-19T11:50:10.563Z,102471.53
2022-10-19T11:53:09.671Z,102477.66
2022-10-19T11:55:40.178Z,102469.53
2022-10-19T11:58:34.454Z,102472.78
2022-10-19T12:01:12.988Z,102458.44
2022-10-19T12:03:58.765Z,102452.19
2022-10-19T12:06:59.835Z,102440.63
2022-10-19T12:10:08.893Z,102433.53
2022-10-19T12:12:47.780Z,102437.09
2022-10-19T12:15:38.094Z,102430.69
2022-10-19T12:18:19.543Z,102426.03
2022-10-19T12:20:53.392Z,102418.03
2022-10-19T12:23:34.340Z,102407.41
2022-10-19T12:26:08.584Z,102406.50
2022-10-19T12:28:43.119Z,102408.31
2022-10-19T12:31:12.358Z,102390.53
2022-10-19T12:33:52.396Z,102392.19
2022-10-19T12:36:40.405Z,102382.44
2022-10-19T12:39:45.809Z,102381.47
2022-10-19T12:42:29.147Z,102376.00
2022-10-19T12:45:25.110Z,102382.06
2022-10-19T12:48:18.864Z,102375.84
2022-10-19T12:50:58.052Z,102366.22
2022-10-19T12:53:32.240Z,102372.38
2022-10-19T12:56:26.138Z,102363.44
2022-10-19T12:59:01.416Z,102351.88
2022-10-19T13:01:34.511Z,102339.41
2022-10-19T13:04:21.281Z,102341.06
2022-10-19T13:07:16.712Z,102333.97
2022-10-19T13:09:47.847Z,102321.69
2022-10-19T13:12:19.508Z,102326.06
2022-10-19T13:14:55.684Z,102330.47
2022-10-19T13:17:38.115Z,102319.78
2022-10-19T13:20:14.706Z,102313.59
2022-10-19T13:22:51.459Z,102309.09
2022-10-19T13:25:33.559Z,102302.88
2022-10-19T13:28:06.680Z,102290.56
2022-10-19T13:30:38.099Z,102285.31
2022-10-19T13:33:32.977Z,102294.19
2022-10-19T13:36:00.305Z,102289.78
2022-10-19T13:38:43.438Z,102287.13
2022-10-19T13:41:27.448Z,102284.59
2022-10-19T13:44:15.017Z,102281.97
2022-10-19T13:47:07.420Z,102275.00
2022-10-19T13:50:13.395Z,102274.28
2022-10-19T13:53:18.071Z,102275.31
2022-10-19T13:56:35.255Z,102271.94
2022-10-19T13:59:39.632Z,102273.88
2022-10-19T14:02:50.740Z,102273.91
2022-10-19T14:06:06.021Z,102264.34
2022-10-19T14:09:19.718Z,102261.09
2022-10-19T14:11:54.224Z,102258.63
2022-10-19T14:14:27.932Z,102264.94
2022-10-19T14:17:04.210Z,102261.56
2022-10-19T14:19:50.475Z,102251.13
2022-10-19T14:22:33.824Z,102250.31
2022-10-19T14:25:17.425Z,102253.94
2022-10-19T14:27:58.305Z,102252.25
2022-10-19T14:30:33.781Z,102251.50
2022-10-19T14:33:07.948Z,102257.78
2022-10-19T14:35:44.893Z,102248.09
2022-10-19T14:38:43.417Z,102249.88
2022-10-19T14:44:38.473Z,102248.19
2022-10-19T14:47:30.274Z,102241.09
2022-10-19T14:49:57.710Z,102233.94
2022-10-19T14:52:38.440Z,102233.72
2022-10-19T14:55:17.861Z,102226.47
2022-10-19T14:57:50.738Z,102221.09
2022-10-19T15:00:21.682Z,102213.03
2022-10-19T15:03:09.551Z,102217.22
2022-10-19T15:05:46.951Z,102207.44
2022-10-19T15:08:37.231Z,102214.53
2022-10-19T15:11:07.869Z,102225.13
2022-10-19T15:13:47.356Z,102216.22
2022-10-19T15:16:49.756Z,102203.81
2022-10-19T15:19:30.753Z,102211.81
2022-10-19T15:22:23.123Z,102207.59
2022-10-19T15:25:07.691Z,102205.22
2022-10-19T15:27:42.108Z,102194.78
2022-10-19T15:30:18.595Z,102197.56
2022-10-19T15:32:50.555Z,102195.13
2022-10-19T15:35:31.949Z,102191.72
2022-10-19T15:38:09.955Z,102187.53
2022-10-19T15:40:43.773Z,102185.03
2022-10-19T15:43:38.585Z,102178.19
2022-10-19T15:46:28.219Z,102175.81
2022-10-19T15:49:19.736Z,102175.09
2022-10-19T15:51:48.599Z,102172.59
2022-10-19T15:54:19.007Z,102165.69
2022-10-19T15:56:51.958Z,102163.25
2022-10-19T15:59:21.960Z,102150.19
2022-10-19T16:01:53.691Z,102147.72
2022-10-19T16:04:23.276Z,102137.28
2022-10-19T16:06:50.753Z,102140.06
2022-10-19T16:09:21.634Z,102144.59
2022-10-19T16:11:50.086Z,102143.03
2022-10-19T16:16:50.930Z,102134.47
2022-10-19T16:19:18.346Z,102125.81
2022-10-19T16:21:49.971Z,102113.66
2022-10-19T16:24:17.745Z,102116.47
2022-10-19T16:26:45.070Z,102106.97
2022-10-19T16:29:12.408Z,102106.22
2022-10-19T16:31:39.776Z,102106.38
2022-10-19T16:34:07.153Z,102103.78
2022-10-19T16:36:34.479Z,102099.47
2022-10-19T16:39:02.620Z,102095.97
2022-10-19T16:41:30.152Z,102098.75
2022-10-19T16:43:57.668Z,102096.19
2022-10-19T16:46:26.048Z,102099.75
2022-10-19T16:48:53.943Z,102100.69
2022-10-19T16:51:27.686Z,102091.06
2022-10-19T16:53:57.717Z,102092.94
2022-10-19T16:56:29.349Z,102088.59
2022-10-19T16:59:04.116Z,102086.91
2022-10-19T17:01:35.593Z,102087.00
2022-10-19T17:04:03.158Z,102080.06
2022-10-19T17:06:30.494Z,102086.25
2022-10-19T17:11:46.396Z,102080.19
2022-10-19T17:14:13.821Z,102074.06
2022-10-19T17:16:41.587Z,102067.97
2022-10-19T17:19:11.241Z,102062.72
2022-10-19T17:21:39.422Z,102058.34
2022-10-19T17:24:14.636Z,102068.94
2022-10-19T17:26:47.689Z,102068.97
2022-10-19T17:29:15.080Z,102062.88
2022-10-19T17:31:45.206Z,102066.41
2022-10-19T17:34:12.676Z,102069.09
2022-10-19T17:36:46.776Z,102061.19
2022-10-19T17:39:19.249Z,102062.06
2022-10-19T17:41:50.471Z,102058.59
2022-10-19T17:44:21.012Z,102060.44
2022-10-19T17:46:49.338Z,102055.19
2022-10-19T17:49:17.312Z,102062.22
2022-10-19T17:51:44.799Z,102063.13
2022-10-19T17:54:14.624Z,102054.38
2022-10-19T17:56:45.048Z,102053.56
2022-10-19T17:59:13.192Z,102054.47
2022-10-19T18:01:40.833Z,102058.03
2022-10-19T18:04:08.203Z,102064.22
2022-10-19T18:06:37.801Z,102057.25
2022-10-19T18:09:09.277Z,102061.66
2022-10-19T18:11:44.922Z,102068.72
2022-10-19T18:14:13.461Z,102067.00
2022-10-19T18:16:45.459Z,102061.75
2022-10-19T18:19:16.274Z,102070.56
2022-10-19T18:21:47.051Z,102066.22
2022-10-19T18:24:19.963Z,102061.84
2022-10-19T18:26:50.202Z,102071.50
2022-10-19T18:29:25.232Z,102074.16
2022-10-19T18:31:53.696Z,102061.00
2022-10-19T18:34:26.488Z,102057.53
2022-10-19T18:36:54.254Z,102057.59
2022-10-19T18:39:22.395Z,102060.22
2022-10-19T18:41:54.102Z,102040.06
2022-10-19T18:44:26.355Z,102042.72
2022-10-19T18:46:57.227Z,102047.13
2022-10-19T18:49:25.533Z,102038.38
2022-10-19T18:51:56.402Z,102029.63
2022-10-19T18:54:26.143Z,102030.53
2022-10-19T18:56:54.119Z,102027.97
2022-10-19T18:59:21.519Z,102035.00
2022-10-19T19:01:48.923Z,102024.47
2022-10-19T19:04:16.393Z,102023.63
2022-10-19T19:06:43.777Z,102014.03
2022-10-19T19:09:12.812Z,102013.16
2022-10-19T19:11:41.313Z,102001.78
2022-10-19T19:14:16.654Z,102002.69
2022-10-19T19:16:45.507Z,101996.56
2022-10-19T19:19:16.797Z,101999.22
2022-10-19T19:21:45.160Z,101989.59
2022-10-19T19:24:16.481Z,101988.78
2022-10-19T19:26:49.978Z,101980.91
2022-10-19T19:29:19.425Z,101982.69
2022-10-19T19:31:48.112Z,101980.91
2022-10-19T19:34:15.973Z,101974.84
2022-10-19T19:36:48.240Z,101963.47
2022-10-19T19:39:20.618Z,101964.34
2022-10-19T19:41:50.060Z,101951.25
2022-10-19T19:44:18.160Z,101954.78
2022-10-19T19:46:46.209Z,101949.56
2022-10-19T19:49:14.220Z,101958.31
2022-10-19T19:51:41.729Z,101945.19
2022-10-19T19:54:09.101Z,101953.03
2022-10-19T19:56:37.333Z,101960.97
2022-10-19T19:59:04.773Z,101947.81
2022-10-19T20:01:32.598Z,101953.09
2022-10-19T20:06:33.263Z,101940.91
2022-10-19T20:09:00.725Z,101932.16
2022-10-19T20:11:29.603Z,101928.69
2022-10-19T20:13:57.024Z,101926.09
2022-10-19T20:16:29.951Z,101926.97
2022-10-19T20:19:08.199Z,101912.09
2022-10-19T20:21:36.024Z,101909.53
2022-10-19T20:24:03.952Z,101910.44
2022-10-19T20:26:46.769Z,101904.31
2022-10-19T20:29:14.231Z,101906.09
2022-10-19T20:31:44.160Z,101897.34
2022-10-19T20:34:13.831Z,101889.50
2022-10-19T20:36:43.890Z,101884.25
2022-10-19T20:39:11.274Z,101868.53
2022-10-19T20:41:38.819Z,101868.53
2022-10-19T20:44:06.207Z,101864.19
2022-10-19T20:46:33.906Z,101858.06
2022-10-19T20:49:01.706Z,101856.34
2022-10-19T20:51:33.029Z,101865.09
2022-10-19T20:54:03.326Z,101869.50
2022-10-19T20:56:35.130Z,101871.25
2022-10-19T20:59:16.566Z,101872.13
2022-10-19T21:01:45.539Z,101875.66
2022-10-19T21:04:15.154Z,101868.63
2022-10-19T21:06:50.311Z,101867.78
2022-10-19T21:09:22.133Z,101869.53
2022-10-19T21:11:51.510Z,101860.81
2022-10-19T21:14:28.077Z,101856.41
2022-10-19T21:17:00.299Z,101856.44
2022-10-19T21:19:29.246Z,101849.47
2022-10-19T21:22:03.531Z,101849.47
2022-10-19T21:24:35.953Z,101846.84
2022-10-19T21:27:07.398Z,101850.34
2022-10-19T21:29:39.482Z,101846.00
2022-10-19T21:32:06.973Z,101829.38
2022-10-19T21:34:34.848Z,101834.63
2022-10-19T21:37:02.247Z,101835.53
2022-10-19T21:39:29.613Z,101838.16
2022-10-19T21:41:57.870Z,101841.66
2022-10-19T21:44:25.237Z,101846.94
2022-10-19T21:46:52.655Z,101842.56
2022-10-19T21:49:20.131Z,101845.22
2022-10-19T21:51:53.484Z,101838.22
2022-10-19T21:54:29.047Z,101834.72
2022-10-19T21:56:58.326Z,101823.34
2022-10-19T21:59:25.880Z,101824.25
2022-10-19T22:01:57.098Z,101821.63
2022-10-19T22:04:24.566Z,101821.63
2022-10-19T22:06:51.985Z,101834.75
2022-10-19T22:09:21.988Z,101822.53
2022-10-19T22:11:49.398Z,101810.31
2022-10-19T22:14:17.372Z,101802.44
2022-10-19T22:16:45.049Z,101803.31
2022-10-19T22:19:13.389Z,101805.06
2022-10-19T22:21:41.199Z,101791.97
2022-10-19T22:24:14.024Z,101792.84
2022-10-19T22:26:46.278Z,101793.75
2022-10-19T22:29:13.778Z,101778.91
2022-10-19T22:31:42.276Z,101771.88
2022-10-19T22:34:15.014Z,101769.31
2022-10-19T22:36:43.238Z,101759.69
2022-10-19T22:39:11.008Z,101757.94
2022-10-19T22:41:38.329Z,101759.72
2022-10-19T22:44:06.108Z,101762.38
2022-10-19T22:46:33.834Z,101756.22
2022-10-19T22:49:01.323Z,101754.47
2022-10-19T22:51:28.812Z,101744.88
2022-10-19T22:53:56.216Z,101737.88
2022-10-19T22:56:23.656Z,101734.38
2022-10-19T22:58:51.041Z,101739.63
2022-10-19T23:01:19.048Z,101734.38
2022-10-19T23:03:46.466Z,101733.50
2022-10-19T23:06:15.518Z,101738.72
2022-10-19T23:08:44.686Z,101739.59
2022-10-19T23:11:13.567Z,101721.22
2022-10-19T23:13:41.387Z,101717.72
2022-10-19T23:16:09.723Z,101717.72
2022-10-19T23:18:40.366Z,101714.25
2022-10-19T23:21:14.005Z,101717.72
2022-10-19T23:23:42.560Z,101718.63
2022-10-19T23:26:17.276Z,101717.72
2022-10-19T23:28:48.690Z,101716.88
2022-10-19T23:31:26.209Z,101704.66
2022-10-19T23:33:54.030Z,101704.66
2022-10-19T23:36:28.092Z,101699.41
2022-10-19T23:38:57.750Z,101702.03
2022-10-19T23:41:25.497Z,101700.28
2022-10-19T23:43:52.828Z,101685.47
2022-10-19T23:46:20.434Z,101675.00
2022-10-19T23:48:47.769Z,101667.16
2022-10-19T23:51:19.272Z,101675.03
2022-10-19T23:53:50.557Z,101677.69
2022-10-19T23:56:25.349Z,101681.19
2022-10-19T23:58:53.709Z,101679.47
